createdAt,value
2023-04-10T00:01:23.886Z,10.58
2023-04-10T00:06:28.380Z,10.47
2023-04-10T00:11:31.068Z,10.36
2023-04-10T00:16:33.911Z,10.49
2023-04-10T00:21:36.513Z,10.66
2023-04-10T00:26:39.116Z,10.23
2023-04-10T00:31:41.812Z,10.11
2023-04-10T00:36:45.472Z,10.15
2023-04-10T00:41:48.068Z,10.43
2023-04-10T00:46:51.643Z,10.63
2023-04-10T00:51:56.639Z,10.65
2023-04-10T00:57:01.398Z,10.23
2023-04-10T01:02:04.656Z,10.12
2023-04-10T01:07:29.894Z,9.93
2023-04-10T01:12:51.610Z,9.81
2023-04-10T01:18:14.718Z,9.63
2023-04-10T01:23:28.220Z,9.67
2023-04-10T01:28:54.670Z,9.51
2023-04-10T01:34:08.568Z,9.57
2023-04-10T01:39:12.350Z,9.69
2023-04-10T01:44:16.408Z,9.92
2023-04-10T01:49:20.807Z,9.64
2023-04-10T01:54:24.333Z,9.20
2023-04-10T01:59:27.639Z,9.35
2023-04-10T02:04:30.815Z,8.56
2023-04-10T02:09:52.014Z,8.17
2023-04-10T02:14:56.524Z,7.84
2023-04-10T02:20:00.226Z,7.44
2023-04-10T02:25:06.377Z,7.53
2023-04-10T02:30:09.555Z,7.34
2023-04-10T02:35:12.251Z,7.24
2023-04-10T02:40:15.010Z,7.25
2023-04-10T02:45:33.408Z,7.87
2023-04-10T02:50:36.101Z,8.35
2023-04-10T02:55:38.834Z,8.37
2023-04-10T03:00:41.896Z,8.40
2023-04-10T03:05:52.064Z,7.91
2023-04-10T03:11:00.660Z,7.72
2023-04-10T03:16:04.731Z,7.92
2023-04-10T03:21:07.721Z,8.16
2023-04-10T03:26:10.360Z,7.72
2023-04-10T03:31:14.425Z,7.61
2023-04-10T03:36:19.624Z,7.33
2023-04-10T03:41:25.650Z,7.47
2023-04-10T03:46:28.676Z,7.77
2023-04-10T03:51:31.810Z,7.94
2023-04-10T03:56:34.486Z,8.14
2023-04-10T04:01:37.534Z,7.74
2023-04-10T04:06:45.323Z,7.48
2023-04-10T04:12:05.936Z,7.57
2023-04-10T04:17:25.227Z,7.91
2023-04-10T04:22:32.713Z,7.53
2023-04-10T04:27:42.628Z,7.34
2023-04-10T04:33:03.609Z,7.55
2023-04-10T04:38:26.676Z,7.60
2023-04-10T04:43:44.785Z,7.30
2023-04-10T04:49:00.231Z,7.29
2023-04-10T04:54:10.721Z,7.42
2023-04-10T04:59:25.423Z,7.70
2023-04-10T05:05:00.606Z,8.20
2023-04-10T05:10:17.382Z,8.33
2023-04-10T05:15:45.598Z,8.36
2023-04-10T05:21:12.878Z,8.65
2023-04-10T05:26:47.947Z,8.93
2023-04-10T05:32:05.837Z,9.02
2023-04-10T05:37:34.592Z,9.06
2023-04-10T05:42:58.055Z,8.89
2023-04-10T05:48:07.638Z,9.37
2023-04-10T05:53:22.148Z,9.63
2023-04-10T05:58:54.303Z,9.91
2023-04-10T06:04:14.656Z,10.21
2023-04-10T06:09:17.770Z,10.28
2023-04-10T06:14:21.241Z,10.60
2023-04-10T06:19:24.042Z,10.59
2023-04-10T06:24:27.102Z,10.50
2023-04-10T06:29:31.046Z,10.52
2023-04-10T06:34:34.182Z,10.20
2023-04-10T06:39:40.478Z,10.15
2023-04-10T06:44:44.581Z,10.33
2023-04-10T06:49:47.088Z,10.58
2023-04-10T06:54:49.734Z,10.92
2023-04-10T06:59:52.532Z,11.15
2023-04-10T07:04:57.086Z,11.89
2023-04-10T07:10:00.639Z,12.29
2023-04-10T07:15:03.388Z,13.29
2023-04-10T07:20:06.769Z,14.03
2023-04-10T07:25:09.857Z,14.44
2023-04-10T07:30:13.724Z,15.21
2023-04-10T07:35:17.139Z,15.78
2023-04-10T07:40:19.747Z,16.30
2023-04-10T07:45:22.591Z,16.66
2023-04-10T07:50:25.232Z,16.70
2023-04-10T07:55:28.129Z,17.22
2023-04-10T08:00:30.943Z,16.55
2023-04-10T08:05:33.856Z,16.38
2023-04-10T08:10:39.758Z,17.64
2023-04-10T08:15:42.482Z,17.92
2023-04-10T08:20:45.352Z,18.11
2023-04-10T08:25:48.028Z,18.66
2023-04-10T08:30:50.727Z,19.36
2023-04-10T08:35:53.497Z,19.88
2023-04-10T08:40:56.301Z,20.05
2023-04-10T08:46:02.830Z,20.38
2023-04-10T08:51:10.702Z,18.84
2023-04-10T08:56:18.152Z,19.51
2023-04-10T09:01:23.061Z,20.38
2023-04-10T09:06:26.084Z,21.20
2023-04-10T09:11:56.749Z,20.89
2023-04-10T09:17:19.056Z,22.79
2023-04-10T09:22:36.525Z,22.31
2023-04-10T09:27:40.360Z,21.59
2023-04-10T09:32:45.856Z,23.21
2023-04-10T09:37:48.454Z,21.62
2023-04-10T09:42:51.420Z,23.09
2023-04-10T09:48:29.820Z,25.96
2023-04-10T09:53:50.350Z,26.88
2023-04-10T09:58:56.954Z,27.54
2023-04-10T10:04:06.774Z,27.37
2023-04-10T10:09:11.450Z,26.14
2023-04-10T10:14:29.621Z,27.78
2023-04-10T10:19:38.907Z,25.87
2023-04-10T10:24:57.109Z,25.90
2023-04-10T10:30:30.370Z,25.15
2023-04-10T10:35:38.030Z,25.77
2023-04-10T10:40:54.991Z,26.57
2023-04-10T10:46:02.255Z,24.43
2023-04-10T10:51:05.058Z,24.08
2023-04-10T10:56:28.582Z,22.42
2023-04-10T11:01:31.974Z,22.75
2023-04-10T11:06:53.435Z,23.11
2023-04-10T11:11:59.572Z,24.31
2023-04-10T11:17:02.373Z,27.02
2023-04-10T11:22:08.332Z,28.14
2023-04-10T11:27:40.688Z,27.55
2023-04-10T11:32:45.455Z,28.42
2023-04-10T11:37:48.149Z,29.78
2023-04-10T11:42:50.709Z,30.16
2023-04-10T11:47:54.571Z,29.93
2023-04-10T11:52:57.500Z,31.18
2023-04-10T11:58:00.808Z,31.15
2023-04-10T12:03:03.675Z,30.95
2023-04-10T12:08:06.944Z,29.46
2023-04-10T12:13:26.152Z,27.26
2023-04-10T12:18:30.896Z,26.30
2023-04-10T12:23:34.133Z,24.37
2023-04-10T12:28:38.148Z,24.95
2023-04-10T12:33:44.095Z,24.16
2023-04-10T12:38:46.899Z,22.65
2023-04-10T12:43:49.893Z,21.58
2023-04-10T12:48:53.165Z,21.74
2023-04-10T12:53:56.008Z,21.12
2023-04-10T12:59:08.301Z,21.48
2023-04-10T13:04:11.483Z,22.19
2023-04-10T13:09:15.209Z,21.59
2023-04-10T13:14:18.030Z,22.50
2023-04-10T13:19:20.832Z,22.18
2023-04-10T13:24:23.686Z,23.49
2023-04-10T13:29:26.609Z,22.21
2023-04-10T13:34:29.431Z,21.68
2023-04-10T13:39:32.689Z,21.43
2023-04-10T13:44:35.281Z,22.00
2023-04-10T13:49:38.356Z,22.94
2023-04-10T13:54:41.255Z,23.09
2023-04-10T13:59:43.905Z,22.75
2023-04-10T14:04:47.670Z,21.87
2023-04-10T14:09:50.410Z,22.07
2023-04-10T14:14:53.163Z,21.94
2023-04-10T14:19:55.993Z,21.27
2023-04-10T14:25:09.319Z,21.85
2023-04-10T14:30:15.626Z,21.20
2023-04-10T14:35:18.302Z,20.96
2023-04-10T14:40:21.013Z,21.54
2023-04-10T14:45:23.642Z,22.56
2023-04-10T14:50:26.340Z,21.01
2023-04-10T14:55:32.434Z,20.87
2023-04-10T15:00:35.823Z,21.93
2023-04-10T15:05:38.562Z,22.26
2023-04-10T15:10:42.484Z,21.74
2023-04-10T15:15:45.866Z,21.04
2023-04-10T15:20:48.476Z,20.55
2023-04-10T15:25:51.438Z,20.80
2023-04-10T15:35:58.072Z,20.90
2023-04-10T15:41:01.182Z,20.77
2023-04-10T15:46:04.378Z,20.70
2023-04-10T15:51:07.801Z,20.49
2023-04-10T15:56:10.493Z,20.00
2023-04-10T16:01:13.249Z,19.81
2023-04-10T16:06:16.558Z,19.43
2023-04-10T16:11:19.526Z,19.29
2023-04-10T16:16:22.485Z,19.27
2023-04-10T16:21:25.127Z,19.53
2023-04-10T16:26:27.799Z,19.61
2023-04-10T16:31:33.522Z,19.61
2023-04-10T16:36:36.263Z,19.30
2023-04-10T16:41:39.000Z,18.91
2023-04-10T16:46:41.688Z,18.91
2023-04-10T16:51:44.373Z,19.09
2023-04-10T16:56:47.138Z,19.03
2023-04-10T17:01:51.633Z,18.96
2023-04-10T17:06:54.256Z,18.89
2023-04-10T17:11:57.939Z,19.13
2023-04-10T17:17:01.046Z,18.78
2023-04-10T17:22:03.738Z,18.51
2023-04-10T17:27:06.419Z,18.35
2023-04-10T17:32:09.447Z,18.61
2023-04-10T17:37:12.361Z,18.67
2023-04-10T17:42:14.947Z,18.53
2023-04-10T17:47:17.676Z,18.62
2023-04-10T17:52:20.368Z,18.62
2023-04-10T17:57:23.093Z,18.65
2023-04-10T18:02:25.943Z,18.48
2023-04-10T18:07:28.934Z,18.58
2023-04-10T18:12:31.957Z,18.65
2023-04-10T18:17:35.534Z,18.51
2023-04-10T18:22:39.165Z,18.56
2023-04-10T18:27:55.307Z,18.57
2023-04-10T18:33:11.056Z,18.55
2023-04-10T18:38:14.358Z,18.60
2023-04-10T18:43:17.012Z,18.48
2023-04-10T18:48:19.646Z,18.23
2023-04-10T18:53:22.745Z,18.07
2023-04-10T18:58:25.551Z,18.09
2023-04-10T19:03:28.611Z,18.08
2023-04-10T19:08:31.572Z,18.20
2023-04-10T19:13:34.874Z,18.15
2023-04-10T19:18:37.468Z,18.21
2023-04-10T19:23:40.176Z,18.21
2023-04-10T19:28:42.795Z,18.00
2023-04-10T19:33:45.439Z,17.81
2023-04-10T19:38:51.246Z,17.84
2023-04-10T19:43:54.350Z,17.76
2023-04-10T19:48:57.181Z,17.66
2023-04-10T19:53:59.879Z,17.71
2023-04-10T19:59:02.854Z,17.75
2023-04-10T20:04:05.705Z,17.67
2023-04-10T20:09:08.443Z,17.65
2023-04-10T20:14:11.433Z,17.38
2023-04-10T20:19:14.109Z,17.32
2023-04-10T20:24:16.753Z,17.32
2023-04-10T20:29:19.422Z,16.88
2023-04-10T20:34:22.216Z,16.85
2023-04-10T20:39:25.050Z,16.89
2023-04-10T20:44:27.705Z,16.89
2023-04-10T20:49:30.652Z,16.81
2023-04-10T20:54:34.048Z,16.75
2023-04-10T20:59:36.893Z,16.87
2023-04-10T21:04:39.447Z,16.89
2023-04-10T21:09:42.065Z,16.83
2023-04-10T21:14:44.744Z,16.85
2023-04-10T21:19:47.462Z,16.82
2023-04-10T21:24:50.110Z,16.73
2023-04-10T21:29:52.897Z,16.64
2023-04-10T21:34:55.477Z,16.62
2023-04-10T21:39:58.262Z,16.75
2023-04-10T21:45:01.557Z,16.78
2023-04-10T21:50:04.487Z,16.47
2023-04-10T21:55:07.983Z,16.39
2023-04-10T22:00:12.587Z,16.48
2023-04-10T22:05:15.228Z,16.68
2023-04-10T22:10:17.973Z,16.54
2023-04-10T22:15:20.753Z,16.19
2023-04-10T22:20:23.311Z,16.17
2023-04-10T22:25:26.100Z,16.06
2023-04-10T22:30:29.004Z,15.95
2023-04-10T22:35:32.893Z,15.98
2023-04-10T22:40:35.930Z,15.86
2023-04-10T22:45:39.862Z,15.68
2023-04-10T22:50:42.521Z,15.49
2023-04-10T22:55:45.134Z,15.50
2023-04-10T23:00:47.665Z,15.23
2023-04-10T23:05:50.841Z,15.38
2023-04-10T23:10:56.629Z,15.35
2023-04-10T23:15:59.375Z,15.46
2023-04-10T23:21:06.650Z,15.70
2023-04-10T23:26:11.641Z,15.63
2023-04-10T23:31:14.657Z,15.58
2023-04-10T23:36:17.339Z,15.49
2023-04-10T23:41:20.417Z,15.40
2023-04-10T23:46:23.029Z,15.27
2023-04-10T23:51:27.222Z,15.27
2023-04-10T23:56:31.364Z,15.46
